sensor_id;sensor_type;location;lat;lon;timestamp;P1;durP1;ratioP1;P2;durP2;ratioP2
30743;SDS011;17486;46.738;7.622;2023-02-15T00:01:37;15.02;;;9.93;;
30743;SDS011;17486;46.738;7.622;2023-02-15T00:04:03;17.02;;;11.18;;
30743;SDS011;17486;46.738;7.622;2023-02-15T00:06:30;17.13;;;10.40;;
30743;SDS011;17486;46.738;7.622;2023-02-15T00:08:56;13.20;;;9.23;;
30743;SDS011;17486;46.738;7.622;2023-02-15T00:11:21;13.88;;;9.90;;
30743;SDS011;17486;46.738;7.622;2023-02-15T00:16:38;72.57;;;44.20;;
30743;SDS011;17486;46.738;7.622;2023-02-15T00:19:05;96.35;;;58.03;;
30743;SDS011;17486;46.738;7.622;2023-02-15T00:21:31;63.50;;;37.97;;
30743;SDS011;17486;46.738;7.622;2023-02-15T00:23:58;31.58;;;18.88;;
30743;SDS011;17486;46.738;7.622;2023-02-15T00:26:25;18.02;;;11.75;;
30743;SDS011;17486;46.738;7.622;2023-02-15T00:28:51;16.02;;;10.52;;
30743;SDS011;17486;46.738;7.622;2023-02-15T00:31:16;13.77;;;9.40;;
30743;SDS011;17486;46.738;7.622;2023-02-15T00:33:42;11.52;;;8.65;;
30743;SDS011;17486;46.738;7.622;2023-02-15T00:36:08;13.57;;;9.52;;
30743;SDS011;17486;46.738;7.622;2023-02-15T00:38:35;12.48;;;9.00;;
30743;SDS011;17486;46.738;7.622;2023-02-15T00:41:01;13.52;;;8.68;;
30743;SDS011;17486;46.738;7.622;2023-02-15T00:43:29;13.73;;;9.27;;
30743;SDS011;17486;46.738;7.622;2023-02-15T00:45:55;13.40;;;8.65;;
30743;SDS011;17486;46.738;7.622;2023-02-15T00:48:21;13.32;;;8.43;;
30743;SDS011;17486;46.738;7.622;2023-02-15T00:50:51;12.60;;;7.97;;
30743;SDS011;17486;46.738;7.622;2023-02-15T00:53:17;13.18;;;7.38;;
30743;SDS011;17486;46.738;7.622;2023-02-15T00:55:43;11.60;;;7.38;;
30743;SDS011;17486;46.738;7.622;2023-02-15T00:58:09;12.13;;;8.40;;
30743;SDS011;17486;46.738;7.622;2023-02-15T01:00:35;12.98;;;8.15;;
30743;SDS011;17486;46.738;7.622;2023-02-15T01:03:02;12.25;;;8.13;;
30743;SDS011;17486;46.738;7.622;2023-02-15T01:05:27;11.10;;;7.97;;
30743;SDS011;17486;46.738;7.622;2023-02-15T01:07:54;11.65;;;7.82;;
30743;SDS011;17486;46.738;7.622;2023-02-15T01:10:20;12.30;;;7.80;;
30743;SDS011;17486;46.738;7.622;2023-02-15T01:12:46;10.95;;;8.20;;
30743;SDS011;17486;46.738;7.622;2023-02-15T01:15:11;8.85;;;7.30;;
30743;SDS011;17486;46.738;7.622;2023-02-15T01:17:36;10.55;;;7.50;;
30743;SDS011;17486;46.738;7.622;2023-02-15T01:20:02;11.75;;;7.93;;
30743;SDS011;17486;46.738;7.622;2023-02-15T01:22:28;10.00;;;7.60;;
30743;SDS011;17486;46.738;7.622;2023-02-15T01:24:53;10.43;;;7.65;;
30743;SDS011;17486;46.738;7.622;2023-02-15T01:27:18;12.15;;;8.65;;
30743;SDS011;17486;46.738;7.622;2023-02-15T01:29:44;12.07;;;8.13;;
30743;SDS011;17486;46.738;7.622;2023-02-15T01:32:09;11.88;;;7.80;;
30743;SDS011;17486;46.738;7.622;2023-02-15T01:34:35;10.13;;;8.35;;
30743;SDS011;17486;46.738;7.622;2023-02-15T01:37:00;13.00;;;8.13;;
30743;SDS011;17486;46.738;7.622;2023-02-15T01:39:26;10.52;;;7.65;;
30743;SDS011;17486;46.738;7.622;2023-02-15T01:41:51;12.80;;;7.68;;
30743;SDS011;17486;46.738;7.622;2023-02-15T01:44:40;10.88;;;8.18;;
30743;SDS011;17486;46.738;7.622;2023-02-15T01:47:08;10.68;;;8.15;;
30743;SDS011;17486;46.738;7.622;2023-02-15T01:49:36;11.80;;;8.63;;
30743;SDS011;17486;46.738;7.622;2023-02-15T01:52:06;13.65;;;8.57;;
30743;SDS011;17486;46.738;7.622;2023-02-15T01:54:35;11.40;;;7.65;;
30743;SDS011;17486;46.738;7.622;2023-02-15T01:57:13;12.48;;;7.75;;
30743;SDS011;17486;46.738;7.622;2023-02-15T01:59:44;12.95;;;8.00;;
30743;SDS011;17486;46.738;7.622;2023-02-15T02:02:13;12.23;;;7.97;;
30743;SDS011;17486;46.738;7.622;2023-02-15T02:04:43;10.55;;;7.70;;
30743;SDS011;17486;46.738;7.622;2023-02-15T02:07:13;11.80;;;8.68;;
30743;SDS011;17486;46.738;7.622;2023-02-15T02:09:42;10.15;;;7.55;;
30743;SDS011;17486;46.738;7.622;2023-02-15T02:12:08;11.60;;;8.30;;
30743;SDS011;17486;46.738;7.622;2023-02-15T02:14:34;10.82;;;7.60;;
30743;SDS011;17486;46.738;7.622;2023-02-15T02:24:55;13.65;;;7.93;;
30743;SDS011;17486;46.738;7.622;2023-02-15T02:27:44;14.63;;;8.45;;
30743;SDS011;17486;46.738;7.622;2023-02-15T02:36:49;12.23;;;8.55;;
30743;SDS011;17486;46.738;7.622;2023-02-15T02:42:12;10.35;;;7.70;;
30743;SDS011;17486;46.738;7.622;2023-02-15T02:50:17;11.63;;;7.60;;
30743;SDS011;17486;46.738;7.622;2023-02-15T02:52:48;10.88;;;8.57;;
30743;SDS011;17486;46.738;7.622;2023-02-15T02:55:27;11.73;;;8.00;;
30743;SDS011;17486;46.738;7.622;2023-02-15T03:00:23;11.32;;;8.77;;
30743;SDS011;17486;46.738;7.622;2023-02-15T03:02:53;12.75;;;8.88;;
30743;SDS011;17486;46.738;7.622;2023-02-15T03:05:23;11.80;;;8.13;;
30743;SDS011;17486;46.738;7.622;2023-02-15T03:07:52;10.82;;;7.90;;
30743;SDS011;17486;46.738;7.622;2023-02-15T03:10:20;10.75;;;7.78;;
30743;SDS011;17486;46.738;7.622;2023-02-15T03:12:49;10.38;;;7.88;;
30743;SDS011;17486;46.738;7.622;2023-02-15T03:15:20;11.00;;;8.02;;
30743;SDS011;17486;46.738;7.622;2023-02-15T03:17:53;11.50;;;7.90;;
30743;SDS011;17486;46.738;7.622;2023-02-15T03:20:27;11.27;;;8.50;;
30743;SDS011;17486;46.738;7.622;2023-02-15T03:23:04;10.90;;;7.70;;
30743;SDS011;17486;46.738;7.622;2023-02-15T03:25:39;11.73;;;7.63;;
30743;SDS011;17486;46.738;7.622;2023-02-15T03:28:08;10.50;;;7.45;;
30743;SDS011;17486;46.738;7.622;2023-02-15T03:30:38;9.18;;;6.82;;
30743;SDS011;17486;46.738;7.622;2023-02-15T03:33:07;9.32;;;7.28;;
30743;SDS011;17486;46.738;7.622;2023-02-15T03:35:36;9.07;;;6.32;;
30743;SDS011;17486;46.738;7.622;2023-02-15T03:38:08;9.60;;;6.85;;
30743;SDS011;17486;46.738;7.622;2023-02-15T03:40:40;9.30;;;6.72;;
30743;SDS011;17486;46.738;7.622;2023-02-15T03:43:42;11.05;;;6.47;;
30743;SDS011;17486;46.738;7.622;2023-02-15T03:46:25;11.77;;;6.40;;
30743;SDS011;17486;46.738;7.622;2023-02-15T03:48:58;8.35;;;6.65;;
30743;SDS011;17486;46.738;7.622;2023-02-15T03:51:29;9.00;;;6.10;;
30743;SDS011;17486;46.738;7.622;2023-02-15T03:54:13;8.40;;;6.07;;
30743;SDS011;17486;46.738;7.622;2023-02-15T03:57:02;7.28;;;5.60;;
30743;SDS011;17486;46.738;7.622;2023-02-15T03:59:47;8.13;;;5.95;;
30743;SDS011;17486;46.738;7.622;2023-02-15T04:02:34;7.95;;;6.03;;
30743;SDS011;17486;46.738;7.622;2023-02-15T04:05:04;9.15;;;6.05;;
30743;SDS011;17486;46.738;7.622;2023-02-15T04:07:30;8.63;;;6.18;;
30743;SDS011;17486;46.738;7.622;2023-02-15T04:09:55;8.68;;;6.13;;
30743;SDS011;17486;46.738;7.622;2023-02-15T04:12:39;8.02;;;5.60;;
30743;SDS011;17486;46.738;7.622;2023-02-15T04:15:05;8.45;;;6.15;;
30743;SDS011;17486;46.738;7.622;2023-02-15T04:17:49;9.20;;;6.35;;
30743;SDS011;17486;46.738;7.622;2023-02-15T04:20:14;8.23;;;5.45;;
30743;SDS011;17486;46.738;7.622;2023-02-15T04:22:58;8.82;;;6.25;;
30743;SDS011;17486;46.738;7.622;2023-02-15T04:25:42;10.20;;;6.85;;
30743;SDS011;17486;46.738;7.622;2023-02-15T04:28:07;9.30;;;6.50;;
30743;SDS011;17486;46.738;7.622;2023-02-15T04:30:33;9.55;;;6.78;;
30743;SDS011;17486;46.738;7.622;2023-02-15T04:32:58;8.80;;;6.63;;
30743;SDS011;17486;46.738;7.622;2023-02-15T04:35:24;9.13;;;6.50;;
30743;SDS011;17486;46.738;7.622;2023-02-15T04:37:50;10.52;;;6.07;;
30743;SDS011;17486;46.738;7.622;2023-02-15T04:40:17;11.38;;;6.53;;
30743;SDS011;17486;46.738;7.622;2023-02-15T04:42:42;13.07;;;7.30;;
30743;SDS011;17486;46.738;7.622;2023-02-15T04:45:08;10.30;;;7.22;;
30743;SDS011;17486;46.738;7.622;2023-02-15T04:47:34;10.57;;;6.35;;
30743;SDS011;17486;46.738;7.622;2023-02-15T04:49:59;11.18;;;7.05;;
30743;SDS011;17486;46.738;7.622;2023-02-15T04:52:25;9.57;;;7.25;;
30743;SDS011;17486;46.738;7.622;2023-02-15T04:54:50;10.63;;;7.13;;
30743;SDS011;17486;46.738;7.622;2023-02-15T04:57:15;10.05;;;7.00;;
30743;SDS011;17486;46.738;7.622;2023-02-15T04:59:41;9.52;;;6.68;;
30743;SDS011;17486;46.738;7.622;2023-02-15T05:02:06;11.35;;;7.07;;
30743;SDS011;17486;46.738;7.622;2023-02-15T05:04:32;10.02;;;7.43;;
30743;SDS011;17486;46.738;7.622;2023-02-15T05:06:57;10.80;;;7.13;;
30743;SDS011;17486;46.738;7.622;2023-02-15T05:09:22;12.18;;;7.43;;
30743;SDS011;17486;46.738;7.622;2023-02-15T05:11:48;13.05;;;8.18;;
30743;SDS011;17486;46.738;7.622;2023-02-15T05:14:13;17.02;;;10.25;;
30743;SDS011;17486;46.738;7.622;2023-02-15T05:16:39;18.02;;;12.55;;
30743;SDS011;17486;46.738;7.622;2023-02-15T05:19:04;16.95;;;12.73;;
30743;SDS011;17486;46.738;7.622;2023-02-15T05:21:30;13.90;;;10.98;;
30743;SDS011;17486;46.738;7.622;2023-02-15T05:23:57;12.73;;;9.93;;
30743;SDS011;17486;46.738;7.622;2023-02-15T05:26:22;14.02;;;9.18;;
30743;SDS011;17486;46.738;7.622;2023-02-15T05:29:08;12.43;;;7.80;;
30743;SDS011;17486;46.738;7.622;2023-02-15T05:31:33;10.55;;;7.35;;
30743;SDS011;17486;46.738;7.622;2023-02-15T05:34:00;11.60;;;7.10;;
30743;SDS011;17486;46.738;7.622;2023-02-15T05:36:25;9.35;;;6.90;;
30743;SDS011;17486;46.738;7.622;2023-02-15T05:38:50;10.32;;;7.22;;
30743;SDS011;17486;46.738;7.622;2023-02-15T05:41:16;9.75;;;7.20;;
30743;SDS011;17486;46.738;7.622;2023-02-15T05:43:41;10.45;;;6.78;;
30743;SDS011;17486;46.738;7.622;2023-02-15T05:46:07;13.63;;;7.72;;
30743;SDS011;17486;46.738;7.622;2023-02-15T05:48:33;11.30;;;7.65;;
30743;SDS011;17486;46.738;7.622;2023-02-15T05:51:00;12.63;;;8.05;;
30743;SDS011;17486;46.738;7.622;2023-02-15T05:53:28;10.20;;;7.05;;
30743;SDS011;17486;46.738;7.622;2023-02-15T05:55:54;13.57;;;7.30;;
30743;SDS011;17486;46.738;7.622;2023-02-15T05:58:24;10.68;;;7.70;;
30743;SDS011;17486;46.738;7.622;2023-02-15T06:00:57;12.15;;;8.27;;
30743;SDS011;17486;46.738;7.622;2023-02-15T06:03:22;19.15;;;11.40;;
30743;SDS011;17486;46.738;7.622;2023-02-15T06:05:48;23.05;;;13.38;;
30743;SDS011;17486;46.738;7.622;2023-02-15T06:08:14;39.83;;;20.67;;
30743;SDS011;17486;46.738;7.622;2023-02-15T06:10:40;54.72;;;27.88;;
30743;SDS011;17486;46.738;7.622;2023-02-15T06:13:06;60.28;;;29.02;;
30743;SDS011;17486;46.738;7.622;2023-02-15T06:15:31;53.20;;;23.38;;
30743;SDS011;17486;46.738;7.622;2023-02-15T06:17:57;33.80;;;17.92;;
30743;SDS011;17486;46.738;7.622;2023-02-15T06:20:22;28.85;;;16.13;;
30743;SDS011;17486;46.738;7.622;2023-02-15T06:22:48;25.50;;;14.45;;
30743;SDS011;17486;46.738;7.622;2023-02-15T06:25:13;24.48;;;13.93;;
30743;SDS011;17486;46.738;7.622;2023-02-15T06:27:40;25.13;;;12.77;;
30743;SDS011;17486;46.738;7.622;2023-02-15T06:30:07;24.98;;;13.00;;
30743;SDS011;17486;46.738;7.622;2023-02-15T06:32:33;19.95;;;12.40;;
30743;SDS011;17486;46.738;7.622;2023-02-15T06:34:58;19.58;;;10.38;;
30743;SDS011;17486;46.738;7.622;2023-02-15T06:37:24;15.52;;;9.02;;
30743;SDS011;17486;46.738;7.622;2023-02-15T06:39:49;18.30;;;10.23;;
30743;SDS011;17486;46.738;7.622;2023-02-15T06:42:15;39.30;;;21.65;;
30743;SDS011;17486;46.738;7.622;2023-02-15T06:44:40;55.03;;;32.00;;
30743;SDS011;17486;46.738;7.622;2023-02-15T06:47:05;35.30;;;18.70;;
30743;SDS011;17486;46.738;7.622;2023-02-15T06:49:31;17.75;;;10.68;;
30743;SDS011;17486;46.738;7.622;2023-02-15T06:51:56;17.02;;;9.27;;
30743;SDS011;17486;46.738;7.622;2023-02-15T06:54:21;13.65;;;8.20;;
30743;SDS011;17486;46.738;7.622;2023-02-15T06:56:47;12.48;;;7.60;;
30743;SDS011;17486;46.738;7.622;2023-02-15T06:59:12;13.52;;;7.82;;
30743;SDS011;17486;46.738;7.622;2023-02-15T07:01:38;13.38;;;8.43;;
30743;SDS011;17486;46.738;7.622;2023-02-15T07:04:03;11.82;;;7.63;;
30743;SDS011;17486;46.738;7.622;2023-02-15T07:06:32;12.48;;;7.40;;
30743;SDS011;17486;46.738;7.622;2023-02-15T07:08:58;13.40;;;7.80;;
30743;SDS011;17486;46.738;7.622;2023-02-15T07:11:24;11.38;;;8.20;;
30743;SDS011;17486;46.738;7.622;2023-02-15T07:14:08;12.93;;;8.75;;
30743;SDS011;17486;46.738;7.622;2023-02-15T07:16:33;13.82;;;8.65;;
30743;SDS011;17486;46.738;7.622;2023-02-15T07:18:59;12.93;;;7.72;;
30743;SDS011;17486;46.738;7.622;2023-02-15T07:21:24;15.15;;;8.13;;
30743;SDS011;17486;46.738;7.622;2023-02-15T07:23:49;11.25;;;7.72;;
30743;SDS011;17486;46.738;7.622;2023-02-15T07:26:15;16.30;;;8.43;;
30743;SDS011;17486;46.738;7.622;2023-02-15T07:28:40;11.93;;;8.00;;
30743;SDS011;17486;46.738;7.622;2023-02-15T07:31:05;17.77;;;10.45;;
30743;SDS011;17486;46.738;7.622;2023-02-15T07:33:31;19.08;;;13.57;;
30743;SDS011;17486;46.738;7.622;2023-02-15T07:35:58;23.23;;;15.00;;
30743;SDS011;17486;46.738;7.622;2023-02-15T07:38:26;48.20;;;29.00;;
30743;SDS011;17486;46.738;7.622;2023-02-15T07:40:57;37.30;;;21.48;;
30743;SDS011;17486;46.738;7.622;2023-02-15T07:43:27;24.92;;;14.57;;
30743;SDS011;17486;46.738;7.622;2023-02-15T07:45:54;17.23;;;11.52;;
30743;SDS011;17486;46.738;7.622;2023-02-15T07:48:19;12.48;;;8.80;;
30743;SDS011;17486;46.738;7.622;2023-02-15T07:50:45;11.38;;;8.18;;
30743;SDS011;17486;46.738;7.622;2023-02-15T07:53:10;13.20;;;8.32;;
30743;SDS011;17486;46.738;7.622;2023-02-15T07:55:35;11.57;;;7.55;;
30743;SDS011;17486;46.738;7.622;2023-02-15T07:58:01;11.68;;;7.05;;
30743;SDS011;17486;46.738;7.622;2023-02-15T08:00:27;36.10;;;19.63;;
30743;SDS011;17486;46.738;7.622;2023-02-15T08:02:55;194.63;;;99.82;;
30743;SDS011;17486;46.738;7.622;2023-02-15T08:05:39;193.05;;;102.05;;
30743;SDS011;17486;46.738;7.622;2023-02-15T08:08:10;119.22;;;63.67;;
30743;SDS011;17486;46.738;7.622;2023-02-15T08:11:29;53.20;;;30.10;;
30743;SDS011;17486;46.738;7.622;2023-02-15T08:13:51;21.67;;;13.55;;
30743;SDS011;17486;46.738;7.622;2023-02-15T08:18:51;9.52;;;6.75;;
30743;SDS011;17486;46.738;7.622;2023-02-15T08:21:17;9.27;;;5.50;;
30743;SDS011;17486;46.738;7.622;2023-02-15T08:23:43;6.10;;;5.47;;
30743;SDS011;17486;46.738;7.622;2023-02-15T08:26:09;6.35;;;4.93;;
30743;SDS011;17486;46.738;7.622;2023-02-15T08:28:34;6.53;;;4.50;;
30743;SDS011;17486;46.738;7.622;2023-02-15T08:33:31;6.80;;;5.30;;
30743;SDS011;17486;46.738;7.622;2023-02-15T08:35:56;9.75;;;4.70;;
30743;SDS011;17486;46.738;7.622;2023-02-15T08:38:26;9.35;;;5.38;;
30743;SDS011;17486;46.738;7.622;2023-02-15T08:40:52;7.50;;;4.97;;
30743;SDS011;17486;46.738;7.622;2023-02-15T08:43:17;6.90;;;5.20;;
30743;SDS011;17486;46.738;7.622;2023-02-15T08:45:42;103.97;;;68.22;;
30743;SDS011;17486;46.738;7.622;2023-02-15T08:48:08;74.40;;;48.08;;
30743;SDS011;17486;46.738;7.622;2023-02-15T08:50:33;113.30;;;69.57;;
30743;SDS011;17486;46.738;7.622;2023-02-15T08:52:59;75.78;;;45.08;;
30743;SDS011;17486;46.738;7.622;2023-02-15T08:55:24;36.42;;;21.67;;
30743;SDS011;17486;46.738;7.622;2023-02-15T08:57:50;19.85;;;12.70;;
30743;SDS011;17486;46.738;7.622;2023-02-15T09:00:15;11.77;;;7.95;;
30743;SDS011;17486;46.738;7.622;2023-02-15T09:02:42;9.88;;;5.97;;
30743;SDS011;17486;46.738;7.622;2023-02-15T09:05:07;6.50;;;5.00;;
30743;SDS011;17486;46.738;7.622;2023-02-15T09:07:32;6.95;;;5.18;;
30743;SDS011;17486;46.738;7.622;2023-02-15T09:09:58;44.55;;;28.88;;
30743;SDS011;17486;46.738;7.622;2023-02-15T09:12:23;73.82;;;46.03;;
30743;SDS011;17486;46.738;7.622;2023-02-15T09:14:48;49.97;;;30.48;;
30743;SDS011;17486;46.738;7.622;2023-02-15T09:17:14;23.55;;;15.25;;
30743;SDS011;17486;46.738;7.622;2023-02-15T09:19:39;13.55;;;7.95;;
30743;SDS011;17486;46.738;7.622;2023-02-15T09:22:04;9.23;;;5.53;;
30743;SDS011;17486;46.738;7.622;2023-02-15T09:24:31;7.50;;;4.95;;
30743;SDS011;17486;46.738;7.622;2023-02-15T09:26:58;7.72;;;4.35;;
30743;SDS011;17486;46.738;7.622;2023-02-15T09:29:23;6.40;;;4.25;;
30743;SDS011;17486;46.738;7.622;2023-02-15T09:31:49;5.80;;;4.50;;
30743;SDS011;17486;46.738;7.622;2023-02-15T09:34:16;159.23;;;107.97;;
30743;SDS011;17486;46.738;7.622;2023-02-15T09:36:44;390.83;;;289.65;;
30743;SDS011;17486;46.738;7.622;2023-02-15T09:39:17;362.48;;;274.77;;
30743;SDS011;17486;46.738;7.622;2023-02-15T10:31:47;4.32;;;3.22;;
30743;SDS011;17486;46.738;7.622;2023-02-15T10:34:35;4.25;;;3.13;;
30743;SDS011;17486;46.738;7.622;2023-02-15T10:45:27;47.67;;;34.58;;
30743;SDS011;17486;46.738;7.622;2023-02-15T10:51:16;16.90;;;10.45;;
30743;SDS011;17486;46.738;7.622;2023-02-15T10:53:57;8.88;;;4.20;;
30743;SDS011;17486;46.738;7.622;2023-02-15T11:06:49;188.90;;;137.25;;
30743;SDS011;17486;46.738;7.622;2023-02-15T11:09:18;333.55;;;259.63;;
30743;SDS011;17486;46.738;7.622;2023-02-15T11:11:51;370.60;;;284.38;;
30743;SDS011;17486;46.738;7.622;2023-02-15T11:14:33;332.77;;;278.45;;
30743;SDS011;17486;46.738;7.622;2023-02-15T11:17:05;314.15;;;235.95;;
30743;SDS011;17486;46.738;7.622;2023-02-15T11:19:58;102.88;;;70.10;;
30743;SDS011;17486;46.738;7.622;2023-02-15T11:22:26;21.45;;;15.02;;
30743;SDS011;17486;46.738;7.622;2023-02-15T11:24:51;7.57;;;5.72;;
30743;SDS011;17486;46.738;7.622;2023-02-15T11:27:23;7.63;;;4.63;;
30743;SDS011;17486;46.738;7.622;2023-02-15T11:30:02;5.55;;;4.43;;
30743;SDS011;17486;46.738;7.622;2023-02-15T11:32:45;4.57;;;3.80;;
30743;SDS011;17486;46.738;7.622;2023-02-15T11:38:07;4.72;;;3.22;;
30743;SDS011;17486;46.738;7.622;2023-02-15T11:46:16;3.65;;;2.72;;
30743;SDS011;17486;46.738;7.622;2023-02-15T11:48:43;6.53;;;3.20;;
30743;SDS011;17486;46.738;7.622;2023-02-15T11:51:11;5.10;;;3.30;;
30743;SDS011;17486;46.738;7.622;2023-02-15T11:53:42;27.48;;;19.88;;
30743;SDS011;17486;46.738;7.622;2023-02-15T11:56:17;277.17;;;192.65;;
30743;SDS011;17486;46.738;7.622;2023-02-15T11:58:51;374.50;;;310.70;;
30743;SDS011;17486;46.738;7.622;2023-02-15T12:01:42;344.40;;;278.75;;
30743;SDS011;17486;46.738;7.622;2023-02-15T12:06:59;17.52;;;14.35;;
30743;SDS011;17486;46.738;7.622;2023-02-15T12:09:46;9.15;;;7.05;;
30743;SDS011;17486;46.738;7.622;2023-02-15T12:12:19;7.90;;;5.85;;
30743;SDS011;17486;46.738;7.622;2023-02-15T12:14:50;491.77;;;406.33;;
30743;SDS011;17486;46.738;7.622;2023-02-15T12:17:18;395.10;;;341.67;;
30743;SDS011;17486;46.738;7.622;2023-02-15T12:19:46;115.05;;;90.72;;
30743;SDS011;17486;46.738;7.622;2023-02-15T12:24:49;7.50;;;5.60;;
30743;SDS011;17486;46.738;7.622;2023-02-15T12:27:18;5.97;;;3.63;;
30743;SDS011;17486;46.738;7.622;2023-02-15T12:29:53;3.58;;;3.22;;
30743;SDS011;17486;46.738;7.622;2023-02-15T12:32:28;4.22;;;3.40;;
30743;SDS011;17486;46.738;7.622;2023-02-15T12:35:31;4.55;;;3.78;;
30743;SDS011;17486;46.738;7.622;2023-02-15T12:38:09;5.13;;;3.63;;
30743;SDS011;17486;46.738;7.622;2023-02-15T12:41:04;8.30;;;3.88;;
30743;SDS011;17486;46.738;7.622;2023-02-15T12:43:46;5.63;;;4.15;;
30743;SDS011;17486;46.738;7.622;2023-02-15T12:46:23;6.35;;;4.03;;
30743;SDS011;17486;46.738;7.622;2023-02-15T12:49:36;103.10;;;75.32;;
30743;SDS011;17486;46.738;7.622;2023-02-15T12:51:52;199.23;;;145.80;;
30743;SDS011;17486;46.738;7.622;2023-02-15T12:56:47;19.73;;;13.18;;
30743;SDS011;17486;46.738;7.622;2023-02-15T12:59:13;12.25;;;9.20;;
30743;SDS011;17486;46.738;7.622;2023-02-15T13:01:40;11.00;;;7.22;;
30743;SDS011;17486;46.738;7.622;2023-02-15T13:04:14;11.73;;;8.00;;
30743;SDS011;17486;46.738;7.622;2023-02-15T13:06:50;9.57;;;8.07;;
30743;SDS011;17486;46.738;7.622;2023-02-15T13:12:10;12.93;;;7.45;;
30743;SDS011;17486;46.738;7.622;2023-02-15T13:14:36;11.93;;;8.32;;
30743;SDS011;17486;46.738;7.622;2023-02-15T13:17:03;12.02;;;8.90;;
30743;SDS011;17486;46.738;7.622;2023-02-15T13:19:36;12.00;;;9.63;;
30743;SDS011;17486;46.738;7.622;2023-02-15T13:22:10;15.40;;;9.02;;
30743;SDS011;17486;46.738;7.622;2023-02-15T13:24:47;13.32;;;8.95;;
30743;SDS011;17486;46.738;7.622;2023-02-15T13:27:18;13.15;;;9.13;;
30743;SDS011;17486;46.738;7.622;2023-02-15T13:29:53;14.05;;;9.00;;
30743;SDS011;17486;46.738;7.622;2023-02-15T13:32:38;12.73;;;8.73;;
30743;SDS011;17486;46.738;7.622;2023-02-15T13:35:10;12.05;;;8.07;;
30743;SDS011;17486;46.738;7.622;2023-02-15T13:43:52;126.10;;;98.10;;
30743;SDS011;17486;46.738;7.622;2023-02-15T13:51:40;17.67;;;10.02;;
30743;SDS011;17486;46.738;7.622;2023-02-15T13:57:32;15.43;;;9.93;;
30743;SDS011;17486;46.738;7.622;2023-02-15T14:00:22;16.10;;;9.35;;
30743;SDS011;17486;46.738;7.622;2023-02-15T14:05:39;12.75;;;9.07;;
30743;SDS011;17486;46.738;7.622;2023-02-15T14:11:21;10.25;;;7.78;;
30743;SDS011;17486;46.738;7.622;2023-02-15T14:16:44;6.28;;;5.05;;
30743;SDS011;17486;46.738;7.622;2023-02-15T14:19:20;7.95;;;5.95;;
30743;SDS011;17486;46.738;7.622;2023-02-15T14:22:04;7.65;;;5.40;;
30743;SDS011;17486;46.738;7.622;2023-02-15T14:24:42;45.13;;;37.50;;
30743;SDS011;17486;46.738;7.622;2023-02-15T14:27:50;187.88;;;134.35;;
30743;SDS011;17486;46.738;7.622;2023-02-15T14:30:23;38.80;;;31.33;;
30743;SDS011;17486;46.738;7.622;2023-02-15T14:33:29;12.82;;;10.10;;
30743;SDS011;17486;46.738;7.622;2023-02-15T14:36:00;9.50;;;6.07;;
30743;SDS011;17486;46.738;7.622;2023-02-15T14:38:45;9.15;;;6.55;;
30743;SDS011;17486;46.738;7.622;2023-02-15T14:47:12;10.23;;;5.88;;
30743;SDS011;17486;46.738;7.622;2023-02-15T14:49:43;6.55;;;5.70;;
30743;SDS011;17486;46.738;7.622;2023-02-15T14:52:09;7.95;;;6.10;;
30743;SDS011;17486;46.738;7.622;2023-02-15T15:00:21;9.60;;;8.60;;
30743;SDS011;17486;46.738;7.622;2023-02-15T15:02:16;22.02;;;19.92;;
30743;SDS011;17486;46.738;7.622;2023-02-15T15:04:45;25.27;;;22.63;;
30743;SDS011;17486;46.738;7.622;2023-02-15T15:12:50;8.10;;;6.68;;
30743;SDS011;17486;46.738;7.622;2023-02-15T15:17:53;7.40;;;6.38;;
30743;SDS011;17486;46.738;7.622;2023-02-15T15:20:39;8.07;;;7.18;;
30743;SDS011;17486;46.738;7.622;2023-02-15T15:25:42;9.30;;;6.50;;
30743;SDS011;17486;46.738;7.622;2023-02-15T15:28:07;8.38;;;6.63;;
30743;SDS011;17486;46.738;7.622;2023-02-15T15:32:59;9.80;;;6.57;;
30743;SDS011;17486;46.738;7.622;2023-02-15T15:49:55;48.15;;;43.25;;
30743;SDS011;17486;46.738;7.622;2023-02-15T15:52:22;27.80;;;24.77;;
30743;SDS011;17486;46.738;7.622;2023-02-15T15:54:51;16.05;;;9.95;;
30743;SDS011;17486;46.738;7.622;2023-02-15T16:05:45;7.78;;;5.82;;
30743;SDS011;17486;46.738;7.622;2023-02-15T16:08:10;6.38;;;5.43;;
30743;SDS011;17486;46.738;7.622;2023-02-15T16:10:35;151.05;;;110.82;;
30743;SDS011;17486;46.738;7.622;2023-02-15T16:13:02;378.73;;;304.25;;
30743;SDS011;17486;46.738;7.622;2023-02-15T16:15:36;180.35;;;140.60;;
30743;SDS011;17486;46.738;7.622;2023-02-15T16:18:13;38.47;;;29.90;;
30743;SDS011;17486;46.738;7.622;2023-02-15T16:20:41;12.88;;;9.65;;
30743;SDS011;17486;46.738;7.622;2023-02-15T16:26:00;7.10;;;5.20;;
30743;SDS011;17486;46.738;7.622;2023-02-15T16:28:59;7.40;;;5.60;;
30743;SDS011;17486;46.738;7.622;2023-02-15T16:31:26;9.30;;;5.85;;
30743;SDS011;17486;46.738;7.622;2023-02-15T16:33:55;13.07;;;6.60;;
30743;SDS011;17486;46.738;7.622;2023-02-15T16:39:02;9.38;;;5.80;;
30743;SDS011;17486;46.738;7.622;2023-02-15T16:41:32;10.63;;;6.13;;
30743;SDS011;17486;46.738;7.622;2023-02-15T16:43:59;9.43;;;6.28;;
30743;SDS011;17486;46.738;7.622;2023-02-15T16:48:59;14.75;;;6.75;;
30743;SDS011;17486;46.738;7.622;2023-02-15T16:51:29;10.13;;;6.18;;
30743;SDS011;17486;46.738;7.622;2023-02-15T16:54:00;11.00;;;6.50;;
30743;SDS011;17486;46.738;7.622;2023-02-15T16:56:31;12.13;;;6.30;;
30743;SDS011;17486;46.738;7.622;2023-02-15T16:58:58;12.30;;;6.75;;
30743;SDS011;17486;46.738;7.622;2023-02-15T17:01:29;11.40;;;6.90;;
30743;SDS011;17486;46.738;7.622;2023-02-15T17:09:54;12.43;;;6.93;;
30743;SDS011;17486;46.738;7.622;2023-02-15T17:12:43;14.32;;;8.23;;
30743;SDS011;17486;46.738;7.622;2023-02-15T17:18:39;13.45;;;8.55;;
30743;SDS011;17486;46.738;7.622;2023-02-15T17:20:47;15.65;;;8.43;;
30743;SDS011;17486;46.738;7.622;2023-02-15T17:23:20;14.88;;;8.77;;
30743;SDS011;17486;46.738;7.622;2023-02-15T17:25:52;14.63;;;8.90;;
30743;SDS011;17486;46.738;7.622;2023-02-15T17:28:19;14.98;;;9.63;;
30743;SDS011;17486;46.738;7.622;2023-02-15T17:30:47;18.23;;;9.27;;
30743;SDS011;17486;46.738;7.622;2023-02-15T17:33:35;170.52;;;99.97;;
30743;SDS011;17486;46.738;7.622;2023-02-15T17:41:27;39.83;;;26.48;;
30743;SDS011;17486;46.738;7.622;2023-02-15T17:43:54;20.73;;;12.23;;
30743;SDS011;17486;46.738;7.622;2023-02-15T17:46:20;17.45;;;9.65;;
30743;SDS011;17486;46.738;7.622;2023-02-15T17:48:49;16.33;;;9.35;;
30743;SDS011;17486;46.738;7.622;2023-02-15T17:51:17;16.73;;;8.32;;
30743;SDS011;17486;46.738;7.622;2023-02-15T17:53:44;17.27;;;10.00;;
30743;SDS011;17486;46.738;7.622;2023-02-15T17:56:28;18.38;;;11.10;;
30743;SDS011;17486;46.738;7.622;2023-02-15T17:58:54;18.15;;;10.95;;
30743;SDS011;17486;46.738;7.622;2023-02-15T18:01:19;18.42;;;11.02;;
30743;SDS011;17486;46.738;7.622;2023-02-15T18:04:04;59.40;;;42.45;;
30743;SDS011;17486;46.738;7.622;2023-02-15T18:06:51;84.53;;;53.25;;
30743;SDS011;17486;46.738;7.622;2023-02-15T18:09:35;60.20;;;42.40;;
30743;SDS011;17486;46.738;7.622;2023-02-15T18:14:47;18.63;;;11.75;;
30743;SDS011;17486;46.738;7.622;2023-02-15T18:17:13;14.68;;;9.60;;
30743;SDS011;17486;46.738;7.622;2023-02-15T18:19:40;241.23;;;118.10;;
30743;SDS011;17486;46.738;7.622;2023-02-15T18:22:11;387.42;;;220.95;;
30743;SDS011;17486;46.738;7.622;2023-02-15T18:24:38;307.25;;;170.95;;
30743;SDS011;17486;46.738;7.622;2023-02-15T18:27:04;115.95;;;64.28;;
30743;SDS011;17486;46.738;7.622;2023-02-15T18:29:30;41.75;;;23.30;;